createdAt,value
2017-04-29T04:00:35.256Z,4.48
2017-04-29T04:01:00.733Z,4.53
2017-04-29T04:01:26.211Z,4.55
2017-04-29T04:01:51.673Z,4.58
2017-04-29T04:02:17.185Z,4.66
2017-04-29T04:02:42.614Z,4.6
2017-04-29T04:03:08.061Z,4.66
2017-04-29T04:03:33.539Z,4.66
2017-04-29T04:03:58.974Z,4.63
2017-04-29T04:04:24.433Z,4.59
2017-04-29T04:04:49.953Z,4.6
2017-04-29T04:05:15.343Z,4.66
2017-04-29T04:05:40.842Z,4.63
2017-04-29T04:06:06.295Z,4.6
2017-04-29T04:06:31.748Z,4.6
2017-04-29T04:06:57.218Z,4.63
2017-04-29T04:07:22.669Z,4.66
2017-04-29T04:07:48.140Z,4.63
2017-04-29T04:08:13.668Z,4.67
2017-04-29T04:08:39.104Z,4.62
2017-04-29T04:09:04.551Z,4.62
2017-04-29T04:09:30.049Z,4.56
2017-04-29T04:09:55.725Z,4.77
2017-04-29T04:10:21.121Z,4.66
2017-04-29T04:10:46.588Z,4.59
2017-04-29T04:11:12.053Z,4.68
2017-04-29T04:11:37.544Z,4.55
2017-04-29T04:12:03.016Z,4.59
2017-04-29T04:12:28.462Z,4.74
2017-04-29T04:12:53.994Z,4.75
2017-04-29T04:13:19.403Z,4.6
2017-04-29T04:13:44.893Z,4.73
2017-04-29T04:14:10.311Z,4.71
2017-04-29T04:14:35.802Z,4.78
2017-04-29T04:15:01.297Z,4.73
2017-04-29T04:15:26.757Z,4.77
2017-04-29T04:15:52.222Z,4.82
2017-04-29T04:16:17.666Z,4.82
2017-04-29T04:16:43.182Z,4.75
2017-04-29T04:17:08.646Z,4.74
2017-04-29T04:17:34.128Z,4.86
2017-04-29T04:17:59.555Z,4.77
2017-04-29T04:18:25.019Z,4.8
2017-04-29T04:18:50.508Z,4.77
2017-04-29T04:19:15.980Z,4.84
2017-04-29T04:19:41.486Z,4.74
2017-04-29T04:20:06.938Z,4.87
2017-04-29T04:20:32.408Z,4.82
2017-04-29T04:20:57.846Z,4.82
2017-04-29T04:21:23.316Z,4.84
2017-04-29T04:21:48.787Z,4.82
2017-04-29T04:22:14.257Z,4.94
2017-04-29T04:22:39.736Z,4.9
2017-04-29T04:23:05.159Z,4.93
2017-04-29T04:23:30.638Z,4.97
2017-04-29T04:23:56.107Z,4.89
2017-04-29T04:24:21.585Z,4.92
2017-04-29T04:24:47.098Z,4.89
2017-04-29T04:25:12.549Z,4.93
2017-04-29T04:25:38.099Z,4.92
2017-04-29T04:26:03.480Z,4.99
2017-04-29T04:26:28.940Z,4.92
2017-04-29T04:26:54.448Z,4.89
2017-04-29T04:27:19.903Z,4.96
2017-04-29T04:27:45.375Z,4.92
2017-04-29T04:28:10.830Z,4.96
2017-04-29T04:28:36.328Z,4.96
2017-04-29T04:29:01.767Z,5.02
2017-04-29T04:29:27.214Z,4.97
2017-04-29T04:29:52.692Z,4.93
2017-04-29T04:30:18.157Z,4.93
2017-04-29T04:30:43.595Z,5.04
2017-04-29T04:31:09.079Z,5.02
2017-04-29T04:31:34.508Z,4.93
2017-04-29T04:31:59.966Z,5.07
2017-04-29T04:32:25.400Z,5.04
2017-04-29T04:32:50.866Z,5.07
2017-04-29T04:33:16.328Z,5.08
2017-04-29T04:33:41.768Z,5.04
2017-04-29T04:34:07.259Z,5.04
2017-04-29T04:34:32.746Z,5.07
2017-04-29T04:34:58.246Z,5.08
2017-04-29T04:35:23.697Z,5.1
2017-04-29T04:35:49.158Z,5.04
2017-04-29T04:36:14.569Z,5.05
2017-04-29T04:36:40.037Z,5.02
2017-04-29T04:37:05.514Z,4.97
2017-04-29T04:37:30.955Z,5.07
2017-04-29T04:37:56.471Z,4.97
2017-04-29T04:38:21.925Z,5.07
2017-04-29T04:38:47.513Z,5.05
2017-04-29T04:39:12.852Z,5.02
2017-04-29T04:39:38.374Z,4.94
2017-04-29T04:40:03.791Z,5.05
2017-04-29T04:40:29.287Z,5.08
2017-04-29T04:40:54.720Z,5.14
2017-04-29T04:41:20.208Z,5.08
2017-04-29T04:41:45.654Z,5.11
2017-04-29T04:42:11.146Z,5.11
2017-04-29T04:42:36.594Z,5.11
2017-04-29T04:43:02.040Z,5.1
2017-04-29T04:43:27.495Z,5.14
2017-04-29T04:43:52.900Z,5.12
2017-04-29T04:44:18.404Z,5.14
2017-04-29T04:44:43.873Z,5.11
2017-04-29T04:45:09.259Z,5.14
2017-04-29T04:45:34.729Z,5.17
2017-04-29T04:46:00.191Z,5.15
2017-04-29T04:46:25.709Z,5.1
2017-04-29T04:46:51.214Z,5.17
2017-04-29T04:47:16.681Z,5.14
2017-04-29T04:47:42.154Z,5.18
2017-04-29T04:48:07.740Z,5.26
2017-04-29T04:48:33.205Z,5.18
2017-04-29T04:48:58.661Z,5.25
2017-04-29T04:49:24.082Z,5.29
2017-04-29T04:49:49.557Z,5.28
2017-04-29T04:50:15.043Z,5.33
2017-04-29T04:50:40.535Z,5.35
2017-04-29T04:51:06.082Z,5.3
2017-04-29T04:51:31.489Z,5.38
2017-04-29T04:51:56.967Z,5.33
2017-04-29T04:52:22.449Z,5.39
2017-04-29T04:52:47.930Z,5.47
2017-04-29T04:53:13.460Z,5.33
2017-04-29T04:53:38.950Z,5.51
2017-04-29T04:54:04.451Z,5.41
2017-04-29T04:54:29.985Z,5.43
2017-04-29T04:54:55.402Z,5.46
2017-04-29T04:55:20.863Z,5.48
2017-04-29T04:55:46.382Z,5.46
2017-04-29T04:56:11.933Z,5.46
2017-04-29T04:56:37.575Z,5.48
2017-04-29T04:57:02.834Z,5.48
2017-04-29T04:57:28.322Z,5.51
2017-04-29T04:57:53.800Z,5.47
2017-04-29T04:58:19.220Z,5.5
2017-04-29T04:58:44.722Z,5.54
2017-04-29T04:59:10.194Z,5.53
2017-04-29T04:59:35.626Z,5.54
2017-04-29T05:00:01.109Z,5.57
2017-04-29T05:00:26.570Z,5.59
2017-04-29T05:00:52.591Z,5.64
2017-04-29T05:01:18.062Z,5.64
2017-04-29T05:01:43.536Z,5.66
2017-04-29T05:02:08.998Z,5.65
2017-04-29T05:02:34.455Z,5.61
2017-04-29T05:02:59.940Z,5.65
2017-04-29T05:03:25.391Z,5.65
2017-04-29T05:03:51.017Z,5.65
2017-04-29T05:04:16.402Z,5.61
2017-04-29T05:04:42.040Z,5.65
2017-04-29T05:05:07.449Z,5.68
2017-04-29T05:05:32.934Z,5.59
2017-04-29T05:05:58.432Z,5.62
2017-04-29T05:06:23.882Z,5.59
2017-04-29T05:06:49.611Z,5.64
2017-04-29T05:07:15.432Z,5.62
2017-04-29T05:07:40.922Z,5.59
2017-04-29T05:08:06.375Z,5.71
2017-04-29T05:08:31.824Z,5.61
2017-04-29T05:08:57.321Z,5.65
2017-04-29T05:09:22.835Z,5.57
2017-04-29T05:09:48.325Z,5.61
2017-04-29T05:10:14.082Z,5.62
2017-04-29T05:10:39.744Z,5.62
2017-04-29T05:11:05.287Z,5.62
2017-04-29T05:11:30.718Z,5.61
2017-04-29T05:11:56.159Z,5.56
2017-04-29T05:12:21.616Z,5.68
2017-04-29T05:12:47.185Z,5.62
2017-04-29T05:13:12.712Z,5.71
2017-04-29T05:13:38.290Z,5.61
2017-04-29T05:14:03.687Z,5.73
2017-04-29T05:14:29.200Z,5.64
2017-04-29T05:14:54.676Z,5.69
2017-04-29T05:15:20.139Z,5.64
2017-04-29T05:15:45.523Z,5.73
2017-04-29T05:16:11.010Z,5.68
2017-04-29T05:16:36.460Z,5.64
2017-04-29T05:17:01.962Z,5.71
2017-04-29T05:17:27.393Z,5.61
2017-04-29T05:17:52.925Z,5.73
2017-04-29T05:18:18.365Z,5.76
2017-04-29T05:18:43.846Z,5.76
2017-04-29T05:19:09.327Z,5.69
2017-04-29T05:19:34.736Z,5.72
2017-04-29T05:20:00.240Z,5.73
2017-04-29T05:20:25.730Z,5.82
2017-04-29T05:20:51.187Z,5.79
2017-04-29T05:21:16.685Z,5.76
2017-04-29T05:21:42.146Z,5.8
2017-04-29T05:22:07.686Z,5.94
2017-04-29T05:22:33.132Z,5.86
2017-04-29T05:22:58.564Z,5.89
2017-04-29T05:23:24.020Z,5.9
2017-04-29T05:23:49.475Z,5.86
2017-04-29T05:24:14.966Z,5.94
2017-04-29T05:24:40.453Z,5.99
2017-04-29T05:25:05.898Z,5.97
2017-04-29T05:25:31.387Z,5.97
2017-04-29T05:25:56.960Z,5.99
2017-04-29T05:26:22.320Z,5.97
2017-04-29T05:26:47.797Z,5.97
2017-04-29T05:27:13.254Z,6.01
2017-04-29T05:27:38.748Z,6.02
2017-04-29T05:28:04.228Z,6.02
2017-04-29T05:28:29.683Z,6.01
2017-04-29T05:28:55.126Z,6.01
2017-04-29T05:29:20.638Z,6.11
2017-04-29T05:29:46.154Z,6.09
2017-04-29T05:30:11.646Z,6.05
2017-04-29T05:30:37.170Z,6.05
2017-04-29T05:31:02.681Z,6.22
2017-04-29T05:31:28.193Z,6.11
2017-04-29T05:31:53.746Z,6.17
2017-04-29T05:32:19.226Z,6.19
2017-04-29T05:32:44.665Z,6.12
2017-04-29T05:33:10.177Z,6.19
2017-04-29T05:33:35.677Z,6.11
2017-04-29T05:34:01.154Z,6.19
2017-04-29T05:34:26.629Z,6.24
2017-04-29T05:34:52.182Z,6.26
2017-04-29T05:35:17.652Z,6.22
2017-04-29T05:35:43.095Z,6.17
2017-04-29T05:36:08.574Z,6.19
2017-04-29T05:36:34.033Z,6.2
2017-04-29T05:36:59.464Z,6.2
2017-04-29T05:37:24.947Z,6.3
2017-04-29T05:37:50.439Z,6.27
2017-04-29T05:38:15.935Z,6.27
2017-04-29T05:38:41.364Z,6.33
2017-04-29T05:39:06.825Z,6.31
2017-04-29T05:39:32.312Z,6.31
2017-04-29T05:39:57.772Z,6.28
2017-04-29T05:40:23.229Z,6.27
2017-04-29T05:40:48.738Z,6.42
2017-04-29T05:41:14.289Z,6.26
2017-04-29T05:41:39.681Z,6.33
2017-04-29T05:42:05.135Z,6.3
2017-04-29T05:42:30.582Z,6.39
2017-04-29T05:42:56.024Z,6.39
2017-04-29T05:43:21.502Z,6.42
2017-04-29T05:43:46.971Z,6.46
2017-04-29T05:44:12.453Z,6.42
2017-04-29T05:44:38.115Z,6.44
2017-04-29T05:45:03.524Z,6.49
2017-04-29T05:45:29.016Z,6.52
2017-04-29T05:45:54.500Z,6.49
2017-04-29T05:46:19.955Z,6.48
2017-04-29T05:46:45.409Z,6.6
2017-04-29T05:47:10.882Z,6.59
2017-04-29T05:47:36.361Z,6.51
2017-04-29T05:48:01.872Z,6.62
2017-04-29T05:48:27.336Z,6.62
2017-04-29T05:48:52.834Z,6.57
2017-04-29T05:49:18.286Z,6.57
2017-04-29T05:49:43.764Z,6.74
2017-04-29T05:50:09.194Z,6.7
2017-04-29T05:50:34.664Z,6.77
2017-04-29T05:51:00.179Z,6.74
2017-04-29T05:51:25.693Z,6.69
2017-04-29T05:51:51.114Z,6.67
2017-04-29T05:52:16.594Z,6.74
2017-04-29T05:52:42.044Z,6.7
2017-04-29T05:53:07.547Z,6.75
2017-04-29T05:53:32.983Z,6.75
2017-04-29T05:53:58.438Z,6.79
2017-04-29T05:54:23.923Z,6.77
2017-04-29T05:54:49.395Z,6.92
2017-04-29T05:55:14.839Z,6.92
2017-04-29T05:55:40.309Z,6.89
2017-04-29T05:56:05.781Z,6.92
2017-04-29T05:56:31.273Z,6.99
2017-04-29T05:56:56.732Z,6.93
2017-04-29T05:57:22.214Z,7.03
2017-04-29T05:57:47.655Z,7.05
2017-04-29T05:58:13.116Z,7.11
2017-04-29T05:58:38.585Z,7.06
2017-04-29T05:59:04.040Z,7.1
2017-04-29T05:59:29.517Z,7.1
2017-04-29T05:59:55.023Z,7.05
2017-04-29T06:00:20.431Z,6.99
2017-04-29T06:00:45.909Z,7.07
2017-04-29T06:01:11.384Z,7.07
2017-04-29T06:01:36.841Z,7.05
2017-04-29T06:02:02.287Z,7.06
2017-04-29T06:02:27.741Z,7.03
2017-04-29T06:02:53.215Z,7.07
2017-04-29T06:03:18.657Z,7.1
2017-04-29T06:03:44.181Z,7.1
2017-04-29T06:04:09.597Z,7.14
2017-04-29T06:04:35.090Z,7.06
2017-04-29T06:05:00.552Z,7
2017-04-29T06:05:26.035Z,7.02
2017-04-29T06:05:51.508Z,7.17
2017-04-29T06:06:16.956Z,7.18
2017-04-29T06:06:42.398Z,7.15
2017-04-29T06:07:07.874Z,7.29
2017-04-29T06:07:33.361Z,7.21
2017-04-29T06:07:58.808Z,7.24
2017-04-29T06:08:24.311Z,7.21
2017-04-29T06:08:49.787Z,7.24
2017-04-29T06:09:15.293Z,7.23
2017-04-29T06:09:40.762Z,7.24
2017-04-29T06:10:06.237Z,7.32
2017-04-29T06:10:31.722Z,7.32
2017-04-29T06:10:57.215Z,7.35
2017-04-29T06:11:22.695Z,7.35
2017-04-29T06:11:48.160Z,7.39
2017-04-29T06:12:13.623Z,7.33
2017-04-29T06:12:39.109Z,7.51
2017-04-29T06:13:04.553Z,7.48
2017-04-29T06:13:30.024Z,7.47
2017-04-29T06:13:55.518Z,7.53
2017-04-29T06:14:21.036Z,7.48
2017-04-29T06:14:46.513Z,7.5
2017-04-29T06:15:11.996Z,7.6
2017-04-29T06:15:37.473Z,7.66
2017-04-29T06:16:02.958Z,7.54
2017-04-29T06:16:28.461Z,7.58
2017-04-29T06:16:53.973Z,7.73
2017-04-29T06:17:19.474Z,7.7
2017-04-29T06:17:44.964Z,7.67
2017-04-29T06:18:10.443Z,7.7
2017-04-29T06:18:35.918Z,7.87
2017-04-29T06:19:01.356Z,7.93
2017-04-29T06:19:26.836Z,7.97
2017-04-29T06:19:52.338Z,8
2017-04-29T06:20:17.768Z,7.97
2017-04-29T06:20:43.240Z,8.09
2017-04-29T06:21:08.686Z,8.1
2017-04-29T06:21:34.156Z,8.15
2017-04-29T06:21:59.615Z,8.19
2017-04-29T06:22:25.133Z,8.2
2017-04-29T06:22:50.628Z,8.19
2017-04-29T06:23:16.047Z,8.24
2017-04-29T06:23:41.541Z,8.26
2017-04-29T06:24:07.025Z,8.23
2017-04-29T06:24:32.467Z,8.28
2017-04-29T06:24:57.960Z,8.23
2017-04-29T06:25:23.447Z,8.3
2017-04-29T06:25:48.927Z,8.27
2017-04-29T06:26:14.424Z,8.31
2017-04-29T06:26:39.902Z,8.26
2017-04-29T06:27:05.359Z,8.34
2017-04-29T06:27:30.848Z,8.34
2017-04-29T06:27:56.316Z,8.31
2017-04-29T06:28:21.796Z,8.44
2017-04-29T06:28:47.326Z,8.3
2017-04-29T06:29:12.807Z,8.31
2017-04-29T06:29:38.249Z,8.31
2017-04-29T06:30:03.721Z,8.36
2017-04-29T06:30:29.226Z,8.3
2017-04-29T06:30:54.692Z,8.3
2017-04-29T06:31:20.198Z,8.36
2017-04-29T06:31:45.755Z,8.33
2017-04-29T06:32:11.190Z,8.33
2017-04-29T06:32:36.664Z,8.38
2017-04-29T06:33:02.118Z,8.41
2017-04-29T06:33:27.583Z,8.37
2017-04-29T06:33:53.088Z,8.31
2017-04-29T06:34:18.562Z,8.42
2017-04-29T06:34:44.034Z,8.45
2017-04-29T06:35:09.490Z,8.42
2017-04-29T06:35:35.047Z,8.41
2017-04-29T06:36:00.548Z,8.38
2017-04-29T06:36:26.053Z,8.37
2017-04-29T06:36:51.481Z,8.36
2017-04-29T06:37:16.967Z,8.41
2017-04-29T06:37:42.414Z,8.42
2017-04-29T06:38:07.877Z,8.46
2017-04-29T06:38:33.379Z,8.49
2017-04-29T06:38:58.851Z,8.48
2017-04-29T06:39:24.338Z,8.58
2017-04-29T06:39:49.797Z,8.56
2017-04-29T06:40:15.296Z,8.52
2017-04-29T06:40:40.745Z,8.58
2017-04-29T06:41:06.237Z,8.6
2017-04-29T06:41:31.679Z,8.58
2017-04-29T06:41:57.208Z,8.46
2017-04-29T06:42:22.675Z,8.55
2017-04-29T06:42:48.156Z,8.46
2017-04-29T06:43:13.656Z,8.48
2017-04-29T06:43:39.231Z,8.48
2017-04-29T06:44:04.714Z,8.49
2017-04-29T06:44:30.245Z,8.53
2017-04-29T06:44:55.783Z,8.55
2017-04-29T06:45:21.228Z,8.56
2017-04-29T06:45:46.726Z,8.56
2017-04-29T06:46:12.158Z,8.55
2017-04-29T06:46:37.616Z,8.56
2017-04-29T06:47:03.125Z,8.48
2017-04-29T06:47:28.593Z,8.55
2017-04-29T06:47:54.089Z,8.6
2017-04-29T06:48:19.565Z,8.51
2017-04-29T06:48:45.044Z,8.49
2017-04-29T06:49:10.505Z,8.6
2017-04-29T06:49:35.997Z,8.58
2017-04-29T06:50:01.499Z,8.61
2017-04-29T06:50:27.025Z,8.63
2017-04-29T06:50:52.577Z,8.52
2017-04-29T06:51:18.145Z,8.61
2017-04-29T06:51:43.653Z,8.6
2017-04-29T06:52:09.089Z,8.55
2017-04-29T06:52:34.578Z,8.55
2017-04-29T06:53:00.031Z,8.61
2017-04-29T06:53:25.563Z,8.53
2017-04-29T06:53:51.059Z,8.69
2017-04-29T06:54:16.526Z,8.61
2017-04-29T06:54:42.017Z,8.67
2017-04-29T06:55:07.511Z,8.74
2017-04-29T06:55:33.006Z,8.73
2017-04-29T06:55:58.510Z,8.76
2017-04-29T06:56:23.982Z,8.61
2017-04-29T06:56:49.429Z,8.71
2017-04-29T06:57:14.896Z,8.67
2017-04-29T06:57:40.353Z,8.73
2017-04-29T06:58:05.818Z,8.71
2017-04-29T06:58:31.292Z,8.73
2017-04-29T06:58:56.760Z,8.73
2017-04-29T06:59:22.233Z,8.74
2017-04-29T06:59:47.690Z,8.69
2017-04-29T07:00:13.185Z,8.53
2017-04-29T07:00:38.676Z,8.61
2017-04-29T07:01:04.185Z,8.53
2017-04-29T07:01:29.691Z,8.55
2017-04-29T07:01:55.139Z,8.49
2017-04-29T07:02:20.695Z,8.42
2017-04-29T07:02:46.167Z,8.37
2017-04-29T07:03:11.665Z,8.41
2017-04-29T07:03:37.161Z,8.38
2017-04-29T07:04:02.643Z,8.31
2017-04-29T07:04:28.124Z,8.23
2017-04-29T07:04:53.634Z,8.23
2017-04-29T07:05:19.086Z,8.19
2017-04-29T07:05:44.536Z,8.16
2017-04-29T07:06:09.997Z,8.24
2017-04-29T07:06:35.460Z,8.16
2017-04-29T07:07:00.931Z,8.1
2017-04-29T07:07:26.442Z,8.05
2017-04-29T07:07:51.898Z,7.97
2017-04-29T07:08:17.387Z,8.01
2017-04-29T07:08:42.842Z,8.08
2017-04-29T07:09:08.302Z,8.05
2017-04-29T07:09:33.796Z,8.09
2017-04-29T07:09:59.236Z,8
2017-04-29T07:10:24.688Z,7.97
2017-04-29T07:10:50.159Z,8.05
2017-04-29T07:11:15.643Z,8
2017-04-29T07:11:41.128Z,8.1
2017-04-29T07:12:06.610Z,8
2017-04-29T07:12:32.052Z,8.05
2017-04-29T07:12:57.512Z,7.97
2017-04-29T07:13:23.034Z,8.08
2017-04-29T07:13:48.460Z,8.09
2017-04-29T07:14:13.934Z,8.12
2017-04-29T07:14:39.394Z,8.09
2017-04-29T07:15:04.865Z,8.13
2017-04-29T07:15:30.344Z,8.15
2017-04-29T07:15:55.797Z,8.1
2017-04-29T07:16:21.270Z,8.19
2017-04-29T07:16:46.715Z,8.18
2017-04-29T07:17:12.201Z,8.12
2017-04-29T07:17:37.648Z,8.16
2017-04-29T07:18:03.133Z,8.15
2017-04-29T07:18:28.557Z,8.16
2017-04-29T07:18:54.019Z,8.16
2017-04-29T07:19:19.496Z,8.2
2017-04-29T07:19:45.002Z,8.23
2017-04-29T07:20:10.416Z,8.24
2017-04-29T07:20:35.899Z,8.2
2017-04-29T07:21:01.347Z,8.23
2017-04-29T07:21:26.813Z,8.2
2017-04-29T07:21:52.328Z,8.23
2017-04-29T07:22:17.778Z,8.23
2017-04-29T07:22:43.236Z,8.34
2017-04-29T07:23:08.692Z,8.34
2017-04-29T07:23:34.182Z,8.34
2017-04-29T07:23:59.740Z,8.45
2017-04-29T07:24:25.367Z,8.42
2017-04-29T07:24:50.720Z,8.44
2017-04-29T07:25:16.167Z,8.49
2017-04-29T07:25:41.632Z,8.53
2017-04-29T07:26:07.118Z,8.49
2017-04-29T07:26:32.570Z,8.49
2017-04-29T07:26:58.034Z,8.52
2017-04-29T07:27:23.505Z,8.64
2017-04-29T07:27:48.962Z,8.81
2017-04-29T07:28:14.430Z,8.78
2017-04-29T07:28:39.867Z,8.87
2017-04-29T07:29:05.393Z,8.94
2017-04-29T07:29:30.849Z,9.02
2017-04-29T07:29:56.313Z,9.04
2017-04-29T07:30:21.854Z,9.22
2017-04-29T07:30:47.305Z,9.18
2017-04-29T07:31:12.751Z,9.28
2017-04-29T07:31:38.253Z,9.25
2017-04-29T07:32:03.732Z,9.39
2017-04-29T07:32:29.226Z,9.36
2017-04-29T07:32:54.679Z,9.5
2017-04-29T07:33:20.223Z,9.47
2017-04-29T07:33:45.683Z,9.58
2017-04-29T07:34:11.144Z,9.62
2017-04-29T07:34:36.613Z,9.68
2017-04-29T07:35:02.039Z,9.68
2017-04-29T07:35:27.499Z,9.64
2017-04-29T07:35:52.961Z,9.74
2017-04-29T07:36:18.460Z,9.83
2017-04-29T07:36:43.938Z,9.86
2017-04-29T07:37:09.408Z,9.82
2017-04-29T07:37:34.909Z,9.87
2017-04-29T07:38:00.365Z,10.05
2017-04-29T07:38:25.807Z,10.02
2017-04-29T07:38:51.326Z,9.99
2017-04-29T07:39:16.866Z,9.99
2017-04-29T07:39:42.288Z,10.05
2017-04-29T07:40:07.794Z,10.01
2017-04-29T07:40:33.253Z,10.13
2017-04-29T07:40:58.694Z,10.01
2017-04-29T07:41:24.159Z,10.07
2017-04-29T07:41:49.614Z,9.98
2017-04-29T07:42:15.102Z,9.89
2017-04-29T07:42:40.565Z,10.01
2017-04-29T07:43:06.054Z,9.91
2017-04-29T07:43:31.527Z,9.86
2017-04-29T07:43:56.994Z,9.83
2017-04-29T07:44:22.426Z,9.94
2017-04-29T07:44:47.879Z,9.94
2017-04-29T07:45:13.345Z,9.8
2017-04-29T07:45:38.858Z,9.97
2017-04-29T07:46:04.384Z,9.87
2017-04-29T07:46:29.800Z,9.94
2017-04-29T07:46:55.275Z,10.04
2017-04-29T07:47:20.733Z,10.02
2017-04-29T07:47:46.215Z,9.99
2017-04-29T07:48:11.727Z,10.01
2017-04-29T07:48:37.160Z,10.1
2017-04-29T07:49:02.630Z,10.09
2017-04-29T07:49:28.088Z,10.07
2017-04-29T07:49:53.540Z,10.12
2017-04-29T07:50:19.006Z,10.07
2017-04-29T07:50:44.472Z,10.05
2017-04-29T07:51:09.971Z,10.09
2017-04-29T07:51:35.402Z,10.1
2017-04-29T07:52:00.850Z,10.19
2017-04-29T07:52:26.341Z,10.25
2017-04-29T07:52:51.828Z,10.22
2017-04-29T07:53:17.274Z,10.19
2017-04-29T07:53:42.725Z,10.2
2017-04-29T07:54:08.205Z,10.23
2017-04-29T07:54:33.649Z,10.26
2017-04-29T07:54:59.121Z,10.31
2017-04-29T07:55:24.594Z,10.35
2017-04-29T07:55:50.050Z,10.34
2017-04-29T07:56:15.515Z,10.33
2017-04-29T07:56:41.009Z,10.38
2017-04-29T07:57:06.448Z,10.4
2017-04-29T07:57:31.923Z,10.44
2017-04-29T07:57:57.431Z,10.44
2017-04-29T07:58:22.901Z,10.57
2017-04-29T07:58:48.384Z,10.48
2017-04-29T07:59:13.865Z,10.57
2017-04-29T07:59:39.352Z,10.57
2017-04-29T08:00:04.837Z,10.59
2017-04-29T08:00:30.335Z,10.63
2017-04-29T08:00:55.843Z,10.61
2017-04-29T08:01:21.288Z,10.64
2017-04-29T08:01:46.802Z,10.69
2017-04-29T08:02:12.232Z,10.75
2017-04-29T08:02:37.726Z,10.74
2017-04-29T08:03:03.218Z,10.78
2017-04-29T08:03:28.654Z,10.82
2017-04-29T08:03:54.114Z,10.81
2017-04-29T08:04:19.596Z,10.71
2017-04-29T08:04:45.072Z,10.72
2017-04-29T08:05:10.564Z,10.68
2017-04-29T08:05:36.071Z,10.69
2017-04-29T08:06:01.533Z,10.75
2017-04-29T08:06:27.005Z,10.67
2017-04-29T08:06:52.473Z,10.72
2017-04-29T08:07:17.939Z,10.76
2017-04-29T08:07:43.441Z,10.72
2017-04-29T08:08:08.889Z,10.71
2017-04-29T08:08:34.370Z,10.57
2017-04-29T08:08:59.833Z,10.71
2017-04-29T08:09:25.320Z,10.61
2017-04-29T08:09:50.752Z,10.6
2017-04-29T08:10:16.227Z,10.64
2017-04-29T08:10:41.677Z,10.67
2017-04-29T08:11:07.200Z,10.63
2017-04-29T08:11:32.646Z,10.56
2017-04-29T08:11:58.118Z,10.53
2017-04-29T08:12:23.630Z,10.6
2017-04-29T08:12:49.042Z,10.59
2017-04-29T08:13:14.567Z,10.59
2017-04-29T08:13:40.063Z,10.51
2017-04-29T08:14:05.537Z,10.53
2017-04-29T08:14:31.002Z,10.64
2017-04-29T08:14:56.483Z,10.6
2017-04-29T08:15:21.973Z,10.61
2017-04-29T08:15:47.473Z,10.71
2017-04-29T08:16:12.941Z,10.67
2017-04-29T08:16:38.435Z,10.72
2017-04-29T08:17:03.898Z,10.84
2017-04-29T08:17:29.362Z,10.75
2017-04-29T08:17:54.881Z,10.75
2017-04-29T08:18:20.336Z,10.74
2017-04-29T08:18:45.784Z,10.75
2017-04-29T08:19:11.250Z,10.81
2017-04-29T08:19:36.719Z,10.74
2017-04-29T08:20:02.199Z,10.82
2017-04-29T08:20:27.804Z,10.84
2017-04-29T08:20:53.294Z,10.94
2017-04-29T08:21:18.741Z,10.9
2017-04-29T08:21:44.208Z,10.94
2017-04-29T08:22:09.751Z,10.97
2017-04-29T08:22:35.228Z,11.08
2017-04-29T08:23:00.749Z,11.04
2017-04-29T08:23:26.243Z,11.11
2017-04-29T08:23:51.710Z,11.07
2017-04-29T08:24:17.158Z,11.15
2017-04-29T08:24:42.628Z,11.1
2017-04-29T08:25:08.120Z,11.14
2017-04-29T08:25:33.619Z,11.1
2017-04-29T08:25:59.101Z,11.11
2017-04-29T08:26:24.578Z,11.02
2017-04-29T08:26:50.113Z,11.02
2017-04-29T08:27:15.618Z,11.08
2017-04-29T08:27:41.101Z,11.02
2017-04-29T08:28:06.557Z,10.99
2017-04-29T08:28:32.310Z,10.87
2017-04-29T08:28:58.107Z,10.81
2017-04-29T08:29:23.639Z,10.79
2017-04-29T08:29:49.073Z,10.82
2017-04-29T08:30:14.525Z,10.84
2017-04-29T08:30:39.996Z,10.78
2017-04-29T08:31:05.417Z,10.75
2017-04-29T08:31:30.967Z,10.75
2017-04-29T08:31:56.461Z,10.71
2017-04-29T08:32:21.907Z,10.68
2017-04-29T08:32:47.385Z,10.64
2017-04-29T08:33:12.827Z,10.61
2017-04-29T08:33:38.312Z,10.6
2017-04-29T08:34:04.255Z,10.51
2017-04-29T08:34:29.782Z,10.42
2017-04-29T08:34:55.300Z,10.46
2017-04-29T08:35:20.704Z,10.44
2017-04-29T08:35:46.176Z,10.44
2017-04-29T08:36:11.638Z,10.51
2017-04-29T08:36:37.097Z,10.48
2017-04-29T08:37:02.600Z,10.51
2017-04-29T08:37:28.072Z,10.54
2017-04-29T08:37:53.527Z,10.53
2017-04-29T08:38:18.997Z,10.54
2017-04-29T08:38:44.507Z,10.63
2017-04-29T08:39:09.932Z,10.64
2017-04-29T08:39:35.374Z,10.63
2017-04-29T08:40:00.831Z,10.69
2017-04-29T08:40:26.301Z,10.79
2017-04-29T08:40:51.780Z,10.79
2017-04-29T08:41:17.262Z,10.9
2017-04-29T08:41:42.701Z,10.82
2017-04-29T08:42:08.160Z,10.9
2017-04-29T08:42:33.660Z,10.87
2017-04-29T08:42:59.171Z,10.97
2017-04-29T08:43:24.809Z,10.89
2017-04-29T08:43:50.295Z,11.05
2017-04-29T08:44:15.678Z,11.1
2017-04-29T08:44:41.145Z,11.11
2017-04-29T08:45:06.568Z,11.14
2017-04-29T08:45:32.076Z,11.26
2017-04-29T08:45:57.645Z,11.32
2017-04-29T08:46:23.120Z,11.27
2017-04-29T08:46:48.573Z,11.48
2017-04-29T08:47:14.043Z,11.37
2017-04-29T08:47:39.542Z,11.44
2017-04-29T08:48:04.993Z,11.52
2017-04-29T08:48:30.475Z,11.54
2017-04-29T08:48:55.950Z,11.55
2017-04-29T08:49:21.534Z,11.6
2017-04-29T08:49:47.011Z,11.57
2017-04-29T08:50:12.449Z,11.65
2017-04-29T08:50:37.943Z,11.62
2017-04-29T08:51:03.429Z,11.77
2017-04-29T08:51:28.868Z,11.72
2017-04-29T08:51:54.327Z,11.77
2017-04-29T08:52:19.795Z,11.81
2017-04-29T08:52:45.323Z,11.75
2017-04-29T08:53:10.758Z,11.86
2017-04-29T08:53:36.238Z,11.9
2017-04-29T08:54:01.696Z,11.91
2017-04-29T08:54:27.147Z,11.94
2017-04-29T08:54:52.707Z,11.87
2017-04-29T08:55:18.110Z,11.86
2017-04-29T08:55:43.602Z,11.81
2017-04-29T08:56:09.034Z,11.88
2017-04-29T08:56:34.513Z,11.81
2017-04-29T08:56:59.967Z,11.72
2017-04-29T08:57:25.437Z,11.72
2017-04-29T08:57:50.883Z,11.75
2017-04-29T08:58:16.351Z,11.55
2017-04-29T08:58:41.939Z,11.59
2017-04-29T08:59:07.356Z,11.59
2017-04-29T08:59:32.810Z,11.48
2017-04-29T08:59:58.233Z,11.44
2017-04-29T09:00:23.724Z,11.44
2017-04-29T09:00:49.198Z,11.41
2017-04-29T09:01:14.671Z,11.27
2017-04-29T09:01:40.120Z,11.22
2017-04-29T09:02:05.612Z,11.18
2017-04-29T09:02:31.091Z,11.08
2017-04-29T09:02:56.568Z,11.12
2017-04-29T09:03:22.064Z,11.05
2017-04-29T09:03:47.542Z,11.07
2017-04-29T09:04:12.998Z,11.02
2017-04-29T09:04:38.445Z,10.96
2017-04-29T09:05:03.948Z,10.9
2017-04-29T09:05:29.445Z,10.79
2017-04-29T09:05:54.930Z,10.81
2017-04-29T09:06:20.388Z,10.75
2017-04-29T09:06:45.857Z,10.71
2017-04-29T09:07:11.314Z,10.64
2017-04-29T09:07:36.773Z,10.54
2017-04-29T09:08:02.233Z,10.53
2017-04-29T09:08:27.693Z,10.54
2017-04-29T09:08:53.197Z,10.53
2017-04-29T09:09:18.646Z,10.54
2017-04-29T09:09:44.079Z,10.44
2017-04-29T09:10:09.546Z,10.51
2017-04-29T09:10:34.988Z,10.42
2017-04-29T09:11:00.438Z,10.51
2017-04-29T09:11:25.941Z,10.49
2017-04-29T09:11:51.396Z,10.56
2017-04-29T09:12:16.833Z,10.57
2017-04-29T09:12:42.289Z,10.56
2017-04-29T09:13:07.744Z,10.64
2017-04-29T09:13:33.240Z,10.61
2017-04-29T09:13:58.694Z,10.69
2017-04-29T09:14:24.150Z,10.74
2017-04-29T09:14:49.599Z,10.86
2017-04-29T09:15:15.114Z,10.82
2017-04-29T09:15:40.560Z,10.92
2017-04-29T09:16:06.027Z,10.81
2017-04-29T09:16:31.486Z,10.9
2017-04-29T09:16:56.956Z,10.96
2017-04-29T09:17:22.383Z,10.94
2017-04-29T09:17:47.892Z,10.99
2017-04-29T09:18:13.394Z,11.12
2017-04-29T09:18:38.836Z,11.04
2017-04-29T09:19:04.282Z,11.17
2017-04-29T09:19:29.756Z,11.33
2017-04-29T09:19:55.229Z,11.27
2017-04-29T09:20:20.680Z,11.32
2017-04-29T09:20:46.146Z,11.3
2017-04-29T09:21:11.604Z,11.3
2017-04-29T09:21:37.068Z,11.35
2017-04-29T09:22:02.573Z,11.35
2017-04-29T09:22:28.054Z,11.3
2017-04-29T09:22:53.545Z,11.3
2017-04-29T09:23:19.052Z,11.17
2017-04-29T09:23:44.495Z,11.14
2017-04-29T09:24:09.954Z,10.96
2017-04-29T09:24:35.422Z,11.04
2017-04-29T09:25:00.909Z,10.9
2017-04-29T09:25:26.363Z,10.86
2017-04-29T09:25:51.839Z,10.78
2017-04-29T09:26:17.310Z,10.78
2017-04-29T09:26:42.837Z,10.81
2017-04-29T09:27:08.320Z,10.67
2017-04-29T09:27:33.776Z,10.71
2017-04-29T09:27:59.242Z,10.67
2017-04-29T09:28:24.681Z,10.64
2017-04-29T09:28:50.171Z,10.68
2017-04-29T09:29:15.623Z,10.57
2017-04-29T09:29:41.077Z,10.6
2017-04-29T09:30:06.671Z,10.6
2017-04-29T09:30:32.108Z,10.57
2017-04-29T09:30:57.577Z,10.61
2017-04-29T09:31:23.081Z,10.48
2017-04-29T09:31:48.557Z,10.48
2017-04-29T09:32:14.026Z,10.49
2017-04-29T09:32:39.511Z,10.38
2017-04-29T09:33:05.049Z,10.34
2017-04-29T09:33:30.532Z,10.35
2017-04-29T09:33:55.969Z,10.33
2017-04-29T09:34:21.477Z,10.2
2017-04-29T09:34:46.966Z,10.22
2017-04-29T09:35:12.413Z,10.22
2017-04-29T09:35:37.864Z,10.16
2017-04-29T09:36:03.346Z,10.07
2017-04-29T09:36:28.887Z,10.04
2017-04-29T09:36:54.599Z,10.1